sensor_id;sensor_type;location;lat;lon;timestamp;pressure;altitude;pressure_sealevel;temperature;humidity
72061;BME280;59925;52.136;5.420;2023-12-22T00:02:14;100298.09;;;5.49;100.00
72061;BME280;59925;52.136;5.420;2023-12-22T00:04:41;100301.72;;;5.43;100.00
72061;BME280;59925;52.136;5.420;2023-12-22T00:07:07;100321.03;;;5.33;100.00
72061;BME280;59925;52.136;5.420;2023-12-22T00:09:34;100315.53;;;5.17;100.00
72061;BME280;59925;52.136;5.420;2023-12-22T00:12:02;100347.50;;;5.05;100.00
72061;BME280;59925;52.136;5.420;2023-12-22T00:14:29;100363.56;;;4.94;100.00
72061;BME280;59925;52.136;5.420;2023-12-22T00:16:56;100334.50;;;4.87;100.00
72061;BME280;59925;52.136;5.420;2023-12-22T00:19:22;100337.31;;;4.80;100.00
72061;BME280;59925;52.136;5.420;2023-12-22T00:21:49;100363.31;;;4.78;100.00
72061;BME280;59925;52.136;5.420;2023-12-22T00:24:15;100354.47;;;4.72;100.00
72061;BME280;59925;52.136;5.420;2023-12-22T00:26:42;100345.38;;;4.68;100.00
72061;BME280;59925;52.136;5.420;2023-12-22T00:29:08;100340.53;;;4.65;100.00
72061;BME280;59925;52.136;5.420;2023-12-22T00:31:35;100359.06;;;4.60;100.00
72061;BME280;59925;52.136;5.420;2023-12-22T00:34:01;100366.44;;;4.58;100.00
72061;BME280;59925;52.136;5.420;2023-12-22T00:36:28;100352.34;;;4.57;100.00
72061;BME280;59925;52.136;5.420;2023-12-22T00:38:55;100384.47;;;4.56;100.00
72061;BME280;59925;52.136;5.420;2023-12-22T00:41:21;100353.91;;;4.53;100.00
72061;BME280;59925;52.136;5.420;2023-12-22T00:43:48;100344.31;;;4.52;100.00
72061;BME280;59925;52.136;5.420;2023-12-22T00:46:14;100343.50;;;4.52;100.00
72061;BME280;59925;52.136;5.420;2023-12-22T00:48:41;100340.84;;;4.52;100.00
72061;BME280;59925;52.136;5.420;2023-12-22T00:51:08;100348.59;;;4.53;100.00
72061;BME280;59925;52.136;5.420;2023-12-22T00:53:34;100360.81;;;4.54;100.00
72061;BME280;59925;52.136;5.420;2023-12-22T00:56:01;100364.59;;;4.58;100.00
72061;BME280;59925;52.136;5.420;2023-12-22T00:58:31;100372.22;;;4.55;100.00
72061;BME280;59925;52.136;5.420;2023-12-22T01:01:00;100372.50;;;4.53;100.00
72061;BME280;59925;52.136;5.420;2023-12-22T01:03:27;100378.13;;;4.57;100.00
72061;BME280;59925;52.136;5.420;2023-12-22T01:05:54;100378.22;;;4.62;100.00
72061;BME280;59925;52.136;5.420;2023-12-22T01:08:20;100379.88;;;4.68;100.00
72061;BME280;59925;52.136;5.420;2023-12-22T01:10:47;100391.41;;;4.74;100.00
72061;BME280;59925;52.136;5.420;2023-12-22T01:13:14;100387.69;;;4.75;100.00
72061;BME280;59925;52.136;5.420;2023-12-22T01:15:41;100399.34;;;4.74;100.00
72061;BME280;59925;52.136;5.420;2023-12-22T01:18:10;100391.97;;;4.76;100.00
72061;BME280;59925;52.136;5.420;2023-12-22T01:20:37;100391.16;;;4.75;100.00
72061;BME280;59925;52.136;5.420;2023-12-22T01:23:04;100397.03;;;4.78;100.00
72061;BME280;59925;52.136;5.420;2023-12-22T01:25:31;100382.69;;;4.79;100.00
72061;BME280;59925;52.136;5.420;2023-12-22T01:27:58;100387.78;;;4.80;100.00
72061;BME280;59925;52.136;5.420;2023-12-22T01:30:26;100392.84;;;4.82;100.00
72061;BME280;59925;52.136;5.420;2023-12-22T01:32:52;100379.56;;;4.82;100.00
72061;BME280;59925;52.136;5.420;2023-12-22T01:35:19;100377.72;;;4.82;100.00
72061;BME280;59925;52.136;5.420;2023-12-22T01:37:46;100365.97;;;4.78;100.00
72061;BME280;59925;52.136;5.420;2023-12-22T01:40:14;100384.56;;;4.78;100.00
72061;BME280;59925;52.136;5.420;2023-12-22T01:42:41;100386.66;;;4.76;100.00
72061;BME280;59925;52.136;5.420;2023-12-22T01:45:08;100377.88;;;4.75;100.00
72061;BME280;59925;52.136;5.420;2023-12-22T01:47:35;100374.72;;;4.79;100.00
72061;BME280;59925;52.136;5.420;2023-12-22T01:50:03;100372.91;;;4.79;100.00
72061;BME280;59925;52.136;5.420;2023-12-22T01:52:30;100364.94;;;4.79;100.00
72061;BME280;59925;52.136;5.420;2023-12-22T01:54:56;100369.66;;;4.77;100.00
72061;BME280;59925;52.136;5.420;2023-12-22T01:57:23;100370.16;;;4.74;100.00
72061;BME280;59925;52.136;5.420;2023-12-22T01:59:50;100389.56;;;4.74;100.00
72061;BME280;59925;52.136;5.420;2023-12-22T02:02:16;100398.56;;;4.73;100.00
72061;BME280;59925;52.136;5.420;2023-12-22T02:04:44;100398.78;;;4.72;100.00
72061;BME280;59925;52.136;5.420;2023-12-22T02:07:12;100386.91;;;4.74;100.00
72061;BME280;59925;52.136;5.420;2023-12-22T02:09:38;100388.75;;;4.74;100.00
72061;BME280;59925;52.136;5.420;2023-12-22T02:12:05;100381.81;;;4.73;100.00
72061;BME280;59925;52.136;5.420;2023-12-22T02:14:32;100384.25;;;4.74;100.00
72061;BME280;59925;52.136;5.420;2023-12-22T02:17:09;100376.03;;;4.76;100.00
72061;BME280;59925;52.136;5.420;2023-12-22T02:19:45;100369.41;;;4.79;100.00
72061;BME280;59925;52.136;5.420;2023-12-22T02:22:12;100365.25;;;4.83;100.00
72061;BME280;59925;52.136;5.420;2023-12-22T02:24:40;100357.28;;;4.83;100.00
72061;BME280;59925;52.136;5.420;2023-12-22T02:30:07;100351.16;;;4.82;100.00
72061;BME280;59925;52.136;5.420;2023-12-22T02:32:44;100360.19;;;4.81;100.00
72061;BME280;59925;52.136;5.420;2023-12-22T02:35:17;100353.81;;;4.82;100.00
72061;BME280;59925;52.136;5.420;2023-12-22T02:37:47;100355.41;;;4.83;100.00
72061;BME280;59925;52.136;5.420;2023-12-22T02:40:15;100353.72;;;4.94;100.00
72061;BME280;59925;52.136;5.420;2023-12-22T02:42:42;100337.03;;;4.99;100.00
72061;BME280;59925;52.136;5.420;2023-12-22T02:45:16;100319.84;;;5.01;100.00
72061;BME280;59925;52.136;5.420;2023-12-22T02:47:43;100323.53;;;5.00;100.00
72061;BME280;59925;52.136;5.420;2023-12-22T02:50:11;100329.78;;;5.11;100.00
72061;BME280;59925;52.136;5.420;2023-12-22T02:52:39;100326.41;;;5.16;100.00
72061;BME280;59925;52.136;5.420;2023-12-22T02:55:06;100323.38;;;5.29;100.00
72061;BME280;59925;52.136;5.420;2023-12-22T02:57:32;100328.81;;;5.40;100.00
72061;BME280;59925;52.136;5.420;2023-12-22T02:59:59;100326.47;;;5.43;100.00
72061;BME280;59925;52.136;5.420;2023-12-22T03:02:26;100344.34;;;5.48;100.00
72061;BME280;59925;52.136;5.420;2023-12-22T03:04:53;100338.84;;;5.55;100.00
72061;BME280;59925;52.136;5.420;2023-12-22T03:07:19;100354.53;;;5.56;100.00
72061;BME280;59925;52.136;5.420;2023-12-22T03:09:46;100360.97;;;5.60;100.00
72061;BME280;59925;52.136;5.420;2023-12-22T03:12:12;100350.22;;;5.72;100.00
72061;BME280;59925;52.136;5.420;2023-12-22T03:14:39;100351.06;;;5.78;100.00
72061;BME280;59925;52.136;5.420;2023-12-22T03:17:06;100366.22;;;5.77;100.00
72061;BME280;59925;52.136;5.420;2023-12-22T03:19:33;100363.56;;;5.77;100.00
72061;BME280;59925;52.136;5.420;2023-12-22T03:22:00;100364.66;;;5.81;100.00
72061;BME280;59925;52.136;5.420;2023-12-22T03:24:26;100368.25;;;5.92;100.00
72061;BME280;59925;52.136;5.420;2023-12-22T03:26:55;100381.31;;;5.94;100.00
72061;BME280;59925;52.136;5.420;2023-12-22T03:29:22;100367.56;;;6.02;100.00
72061;BME280;59925;52.136;5.420;2023-12-22T03:31:49;100368.41;;;6.03;100.00
72061;BME280;59925;52.136;5.420;2023-12-22T03:34:16;100367.50;;;5.97;100.00
72061;BME280;59925;52.136;5.420;2023-12-22T03:36:42;100392.63;;;6.06;100.00
72061;BME280;59925;52.136;5.420;2023-12-22T03:39:09;100401.97;;;6.09;100.00
72061;BME280;59925;52.136;5.420;2023-12-22T03:41:36;100416.91;;;5.88;100.00
72061;BME280;59925;52.136;5.420;2023-12-22T03:44:02;100424.91;;;5.71;100.00
72061;BME280;59925;52.136;5.420;2023-12-22T03:46:29;100458.19;;;5.51;100.00
72061;BME280;59925;52.136;5.420;2023-12-22T03:48:55;100426.22;;;5.29;100.00
72061;BME280;59925;52.136;5.420;2023-12-22T03:51:22;100405.00;;;5.12;100.00
72061;BME280;59925;52.136;5.420;2023-12-22T03:53:49;100417.88;;;5.03;100.00
72061;BME280;59925;52.136;5.420;2023-12-22T03:56:15;100418.28;;;4.95;100.00
72061;BME280;59925;52.136;5.420;2023-12-22T03:58:42;100419.81;;;4.90;100.00
72061;BME280;59925;52.136;5.420;2023-12-22T04:01:08;100406.78;;;4.89;100.00
72061;BME280;59925;52.136;5.420;2023-12-22T04:03:35;100417.41;;;4.89;100.00
72061;BME280;59925;52.136;5.420;2023-12-22T04:06:03;100409.44;;;4.89;100.00
72061;BME280;59925;52.136;5.420;2023-12-22T04:08:29;100421.13;;;4.88;100.00
72061;BME280;59925;52.136;5.420;2023-12-22T04:10:56;100413.94;;;4.88;100.00
72061;BME280;59925;52.136;5.420;2023-12-22T04:13:23;100411.03;;;4.90;100.00
72061;BME280;59925;52.136;5.420;2023-12-22T04:15:50;100419.81;;;4.90;100.00
72061;BME280;59925;52.136;5.420;2023-12-22T04:18:17;100409.97;;;4.91;100.00
72061;BME280;59925;52.136;5.420;2023-12-22T04:20:44;100424.66;;;4.94;100.00
72061;BME280;59925;52.136;5.420;2023-12-22T04:23:11;100420.13;;;4.94;100.00
72061;BME280;59925;52.136;5.420;2023-12-22T04:25:37;100421.75;;;4.95;100.00
72061;BME280;59925;52.136;5.420;2023-12-22T04:28:04;100423.34;;;4.96;100.00
72061;BME280;59925;52.136;5.420;2023-12-22T04:30:31;100420.69;;;4.96;100.00
72061;BME280;59925;52.136;5.420;2023-12-22T04:32:59;100423.09;;;4.98;100.00
72061;BME280;59925;52.136;5.420;2023-12-22T04:35:27;100423.94;;;4.98;100.00
72061;BME280;59925;52.136;5.420;2023-12-22T04:37:53;100416.53;;;5.00;100.00
72061;BME280;59925;52.136;5.420;2023-12-22T04:40:20;100408.59;;;5.05;100.00
72061;BME280;59925;52.136;5.420;2023-12-22T04:42:46;100429.97;;;5.11;100.00
72061;BME280;59925;52.136;5.420;2023-12-22T04:45:13;100433.41;;;5.11;100.00
72061;BME280;59925;52.136;5.420;2023-12-22T04:47:39;100434.44;;;5.10;100.00
72061;BME280;59925;52.136;5.420;2023-12-22T04:50:06;100439.75;;;5.10;100.00
72061;BME280;59925;52.136;5.420;2023-12-22T04:52:33;100430.22;;;5.09;100.00
72061;BME280;59925;52.136;5.420;2023-12-22T04:55:00;100434.22;;;5.12;100.00
72061;BME280;59925;52.136;5.420;2023-12-22T04:57:27;100435.84;;;5.13;100.00
72061;BME280;59925;52.136;5.420;2023-12-22T04:59:53;100417.47;;;5.11;100.00
72061;BME280;59925;52.136;5.420;2023-12-22T05:02:20;100430.75;;;5.11;100.00
72061;BME280;59925;52.136;5.420;2023-12-22T05:04:46;100430.53;;;5.13;100.00
72061;BME280;59925;52.136;5.420;2023-12-22T05:07:13;100432.13;;;5.14;100.00
72061;BME280;59925;52.136;5.420;2023-12-22T05:09:41;100420.69;;;5.13;100.00
72061;BME280;59925;52.136;5.420;2023-12-22T05:12:08;100411.09;;;5.12;100.00
72061;BME280;59925;52.136;5.420;2023-12-22T05:14:35;100413.75;;;5.12;100.00
72061;BME280;59925;52.136;5.420;2023-12-22T05:17:01;100412.22;;;5.16;100.00
72061;BME280;59925;52.136;5.420;2023-12-22T05:19:28;100411.50;;;5.21;100.00
72061;BME280;59925;52.136;5.420;2023-12-22T05:21:54;100410.53;;;5.27;100.00
72061;BME280;59925;52.136;5.420;2023-12-22T05:24:23;100396.81;;;5.35;100.00
72061;BME280;59925;52.136;5.420;2023-12-22T05:26:49;100397.19;;;5.44;100.00
72061;BME280;59925;52.136;5.420;2023-12-22T05:29:16;100404.50;;;5.54;100.00
72061;BME280;59925;52.136;5.420;2023-12-22T05:31:42;100412.06;;;5.62;100.00
72061;BME280;59925;52.136;5.420;2023-12-22T05:34:09;100401.81;;;5.71;100.00
72061;BME280;59925;52.136;5.420;2023-12-22T05:36:36;100388.31;;;5.78;100.00
72061;BME280;59925;52.136;5.420;2023-12-22T05:39:03;100399.56;;;5.85;100.00
72061;BME280;59925;52.136;5.420;2023-12-22T05:41:33;100388.22;;;5.95;100.00
72061;BME280;59925;52.136;5.420;2023-12-22T05:44:00;100387.81;;;6.03;100.00
72061;BME280;59925;52.136;5.420;2023-12-22T05:46:27;100392.63;;;6.06;100.00
72061;BME280;59925;52.136;5.420;2023-12-22T05:48:54;100405.75;;;6.13;100.00
72061;BME280;59925;52.136;5.420;2023-12-22T05:51:24;100391.69;;;6.18;100.00
72061;BME280;59925;52.136;5.420;2023-12-22T05:53:51;100401.63;;;6.27;100.00
72061;BME280;59925;52.136;5.420;2023-12-22T05:56:20;100398.44;;;6.25;100.00
72061;BME280;59925;52.136;5.420;2023-12-22T05:58:48;100413.97;;;6.34;100.00
72061;BME280;59925;52.136;5.420;2023-12-22T06:01:18;100404.97;;;6.40;100.00
72061;BME280;59925;52.136;5.420;2023-12-22T06:03:46;100408.47;;;6.46;100.00
72061;BME280;59925;52.136;5.420;2023-12-22T06:06:13;100395.44;;;6.49;100.00
72061;BME280;59925;52.136;5.420;2023-12-22T06:08:39;100400.28;;;6.52;100.00
72061;BME280;59925;52.136;5.420;2023-12-22T06:11:06;100396.56;;;6.53;100.00
72061;BME280;59925;52.136;5.420;2023-12-22T06:13:33;100388.00;;;6.51;100.00
72061;BME280;59925;52.136;5.420;2023-12-22T06:16:00;100390.69;;;6.51;100.00
72061;BME280;59925;52.136;5.420;2023-12-22T06:18:26;100404.84;;;6.57;100.00
72061;BME280;59925;52.136;5.420;2023-12-22T06:20:53;100393.19;;;6.63;100.00
72061;BME280;59925;52.136;5.420;2023-12-22T06:23:20;100394.28;;;6.67;100.00
72061;BME280;59925;52.136;5.420;2023-12-22T06:25:47;100402.53;;;6.66;100.00
72061;BME280;59925;52.136;5.420;2023-12-22T06:28:14;100408.13;;;6.69;100.00
72061;BME280;59925;52.136;5.420;2023-12-22T06:30:43;100401.53;;;6.72;100.00
72061;BME280;59925;52.136;5.420;2023-12-22T06:33:15;100387.16;;;6.73;100.00
72061;BME280;59925;52.136;5.420;2023-12-22T06:35:42;100393.88;;;6.81;100.00
72061;BME280;59925;52.136;5.420;2023-12-22T06:38:08;100394.66;;;6.81;100.00
72061;BME280;59925;52.136;5.420;2023-12-22T06:40:37;100385.59;;;6.82;100.00
72061;BME280;59925;52.136;5.420;2023-12-22T06:43:04;100389.38;;;6.86;100.00
72061;BME280;59925;52.136;5.420;2023-12-22T06:45:31;100396.06;;;6.89;100.00
72061;BME280;59925;52.136;5.420;2023-12-22T06:47:57;100395.78;;;6.90;100.00
72061;BME280;59925;52.136;5.420;2023-12-22T06:50:24;100399.56;;;6.95;100.00
72061;BME280;59925;52.136;5.420;2023-12-22T06:52:51;100394.22;;;6.95;100.00
72061;BME280;59925;52.136;5.420;2023-12-22T06:55:17;100397.94;;;6.94;100.00
72061;BME280;59925;52.136;5.420;2023-12-22T06:57:44;100400.66;;;6.99;100.00
72061;BME280;59925;52.136;5.420;2023-12-22T07:00:12;100384.41;;;7.00;100.00
72061;BME280;59925;52.136;5.420;2023-12-22T07:02:39;100396.94;;;7.00;100.00
72061;BME280;59925;52.136;5.420;2023-12-22T07:07:36;100383.91;;;7.09;100.00
72061;BME280;59925;52.136;5.420;2023-12-22T07:10:03;100386.34;;;7.10;100.00
72061;BME280;59925;52.136;5.420;2023-12-22T07:12:30;100389.28;;;7.14;100.00
72061;BME280;59925;52.136;5.420;2023-12-22T07:14:58;100360.25;;;7.17;100.00
72061;BME280;59925;52.136;5.420;2023-12-22T07:17:25;100373.88;;;7.21;100.00
72061;BME280;59925;52.136;5.420;2023-12-22T07:19:52;100392.00;;;7.19;100.00
72061;BME280;59925;52.136;5.420;2023-12-22T07:22:19;100389.88;;;7.26;100.00
72061;BME280;59925;52.136;5.420;2023-12-22T07:24:46;100398.16;;;7.30;100.00
72061;BME280;59925;52.136;5.420;2023-12-22T07:27:12;100396.56;;;7.29;100.00
72061;BME280;59925;52.136;5.420;2023-12-22T07:29:39;100401.94;;;7.34;100.00
72061;BME280;59925;52.136;5.420;2023-12-22T07:32:06;100397.09;;;7.31;100.00
72061;BME280;59925;52.136;5.420;2023-12-22T07:34:32;100405.66;;;7.33;100.00
72061;BME280;59925;52.136;5.420;2023-12-22T07:37:03;100406.47;;;7.33;100.00
72061;BME280;59925;52.136;5.420;2023-12-22T07:39:34;100396.31;;;7.35;100.00
72061;BME280;59925;52.136;5.420;2023-12-22T07:42:03;100395.03;;;7.38;100.00
72061;BME280;59925;52.136;5.420;2023-12-22T07:44:29;100387.59;;;7.40;100.00
72061;BME280;59925;52.136;5.420;2023-12-22T07:46:58;100399.31;;;7.39;100.00
72061;BME280;59925;52.136;5.420;2023-12-22T07:49:27;100403.81;;;7.39;100.00
72061;BME280;59925;52.136;5.420;2023-12-22T07:51:56;100393.63;;;7.25;100.00
72061;BME280;59925;52.136;5.420;2023-12-22T07:54:22;100397.50;;;7.07;100.00
72061;BME280;59925;52.136;5.420;2023-12-22T07:56:50;100394.78;;;6.97;100.00
72061;BME280;59925;52.136;5.420;2023-12-22T07:59:16;100385.94;;;6.91;100.00
72061;BME280;59925;52.136;5.420;2023-12-22T08:01:57;100398.44;;;6.85;100.00
72061;BME280;59925;52.136;5.420;2023-12-22T08:04:23;100410.66;;;6.81;100.00
72061;BME280;59925;52.136;5.420;2023-12-22T08:06:50;100414.88;;;6.77;100.00
72061;BME280;59925;52.136;5.420;2023-12-22T08:09:17;100417.78;;;6.75;100.00
72061;BME280;59925;52.136;5.420;2023-12-22T08:11:43;100422.06;;;6.77;100.00
72061;BME280;59925;52.136;5.420;2023-12-22T08:14:13;100415.41;;;6.79;100.00
72061;BME280;59925;52.136;5.420;2023-12-22T08:16:39;100405.31;;;6.81;100.00
72061;BME280;59925;52.136;5.420;2023-12-22T08:19:06;100402.44;;;6.88;100.00
72061;BME280;59925;52.136;5.420;2023-12-22T08:21:33;100404.59;;;6.91;100.00
72061;BME280;59925;52.136;5.420;2023-12-22T08:24:11;100395.00;;;6.95;100.00
72061;BME280;59925;52.136;5.420;2023-12-22T08:26:48;100395.31;;;6.99;100.00
72061;BME280;59925;52.136;5.420;2023-12-22T08:29:15;100378.28;;;7.00;100.00
72061;BME280;59925;52.136;5.420;2023-12-22T08:31:42;100378.81;;;7.02;100.00
72061;BME280;59925;52.136;5.420;2023-12-22T08:34:10;100368.13;;;7.02;100.00
72061;BME280;59925;52.136;5.420;2023-12-22T08:36:37;100367.91;;;7.03;100.00
72061;BME280;59925;52.136;5.420;2023-12-22T08:39:05;100371.13;;;7.05;100.00
72061;BME280;59925;52.136;5.420;2023-12-22T08:41:32;100360.47;;;7.05;100.00
72061;BME280;59925;52.136;5.420;2023-12-22T08:44:06;100355.13;;;7.05;100.00
72061;BME280;59925;52.136;5.420;2023-12-22T08:46:33;100353.25;;;7.06;100.00
72061;BME280;59925;52.136;5.420;2023-12-22T08:49:01;100359.13;;;7.08;100.00
72061;BME280;59925;52.136;5.420;2023-12-22T08:51:28;100361.56;;;7.15;100.00
72061;BME280;59925;52.136;5.420;2023-12-22T08:53:55;100344.78;;;7.19;100.00
72061;BME280;59925;52.136;5.420;2023-12-22T08:56:22;100350.66;;;7.21;100.00
72061;BME280;59925;52.136;5.420;2023-12-22T08:58:53;100353.06;;;7.23;100.00
72061;BME280;59925;52.136;5.420;2023-12-22T09:01:22;100353.06;;;7.23;100.00
72061;BME280;59925;52.136;5.420;2023-12-22T09:03:48;100350.72;;;7.32;100.00
72061;BME280;59925;52.136;5.420;2023-12-22T09:06:15;100351.00;;;7.35;100.00
72061;BME280;59925;52.136;5.420;2023-12-22T09:08:56;100360.13;;;7.45;100.00
72061;BME280;59925;52.136;5.420;2023-12-22T09:11:32;100362.00;;;7.49;100.00
72061;BME280;59925;52.136;5.420;2023-12-22T09:14:12;100356.94;;;7.53;100.00
72061;BME280;59925;52.136;5.420;2023-12-22T09:16:41;100362.56;;;7.57;100.00
72061;BME280;59925;52.136;5.420;2023-12-22T09:19:09;100363.94;;;7.59;100.00
72061;BME280;59925;52.136;5.420;2023-12-22T09:21:36;100375.13;;;7.61;100.00
72061;BME280;59925;52.136;5.420;2023-12-22T09:24:02;100375.94;;;7.62;100.00
72061;BME280;59925;52.136;5.420;2023-12-22T09:26:29;100372.41;;;7.51;100.00
72061;BME280;59925;52.136;5.420;2023-12-22T09:28:55;100372.31;;;7.35;100.00
72061;BME280;59925;52.136;5.420;2023-12-22T09:31:22;100365.88;;;7.26;100.00
72061;BME280;59925;52.136;5.420;2023-12-22T09:33:49;100367.44;;;7.17;100.00
72061;BME280;59925;52.136;5.420;2023-12-22T09:36:15;100397.47;;;7.02;100.00
72061;BME280;59925;52.136;5.420;2023-12-22T09:38:42;100378.72;;;6.86;100.00
72061;BME280;59925;52.136;5.420;2023-12-22T09:41:10;100354.66;;;6.76;100.00
72061;BME280;59925;52.136;5.420;2023-12-22T09:43:37;100375.66;;;6.72;100.00
72061;BME280;59925;52.136;5.420;2023-12-22T09:46:06;100379.09;;;6.68;100.00
72061;BME280;59925;52.136;5.420;2023-12-22T09:48:33;100373.22;;;6.66;100.00
72061;BME280;59925;52.136;5.420;2023-12-22T09:51:05;100365.78;;;6.68;100.00
72061;BME280;59925;52.136;5.420;2023-12-22T09:53:33;100368.19;;;6.69;100.00
72061;BME280;59925;52.136;5.420;2023-12-22T09:56:00;100367.44;;;6.74;100.00
72061;BME280;59925;52.136;5.420;2023-12-22T09:58:27;100364.78;;;6.79;100.00
72061;BME280;59925;52.136;5.420;2023-12-22T10:00:54;100347.81;;;6.85;100.00
72061;BME280;59925;52.136;5.420;2023-12-22T10:03:24;100353.69;;;6.93;100.00
72061;BME280;59925;52.136;5.420;2023-12-22T10:05:51;100350.59;;;7.06;100.00
72061;BME280;59925;52.136;5.420;2023-12-22T10:08:18;100365.88;;;7.21;100.00
72061;BME280;59925;52.136;5.420;2023-12-22T10:10:46;100354.47;;;7.36;100.00
72061;BME280;59925;52.136;5.420;2023-12-22T10:13:14;100366.53;;;7.44;100.00
72061;BME280;59925;52.136;5.420;2023-12-22T10:15:42;100367.91;;;7.57;100.00
72061;BME280;59925;52.136;5.420;2023-12-22T10:18:10;100371.16;;;7.69;100.00
72061;BME280;59925;52.136;5.420;2023-12-22T10:20:37;100381.31;;;7.72;100.00
72061;BME280;59925;52.136;5.420;2023-12-22T10:23:04;100369.56;;;7.73;100.00
72061;BME280;59925;52.136;5.420;2023-12-22T10:25:32;100359.16;;;7.77;100.00
72061;BME280;59925;52.136;5.420;2023-12-22T10:27:59;100384.78;;;7.78;100.00
72061;BME280;59925;52.136;5.420;2023-12-22T10:30:27;100369.59;;;7.78;100.00
72061;BME280;59925;52.136;5.420;2023-12-22T10:32:54;100372.00;;;7.80;100.00
72061;BME280;59925;52.136;5.420;2023-12-22T10:35:22;100357.03;;;7.79;100.00
72061;BME280;59925;52.136;5.420;2023-12-22T10:37:48;100361.88;;;7.82;100.00
72061;BME280;59925;52.136;5.420;2023-12-22T10:40:19;100380.81;;;7.86;100.00
72061;BME280;59925;52.136;5.420;2023-12-22T10:42:46;100386.97;;;7.91;100.00
72061;BME280;59925;52.136;5.420;2023-12-22T10:45:12;100380.03;;;7.90;100.00
72061;BME280;59925;52.136;5.420;2023-12-22T10:47:40;100368.81;;;7.93;100.00
72061;BME280;59925;52.136;5.420;2023-12-22T10:50:07;100383.50;;;7.96;100.00
72061;BME280;59925;52.136;5.420;2023-12-22T10:52:34;100377.91;;;8.03;100.00
72061;BME280;59925;52.136;5.420;2023-12-22T10:55:00;100381.41;;;8.08;100.00
72061;BME280;59925;52.136;5.420;2023-12-22T10:57:31;100372.09;;;8.11;100.00
72061;BME280;59925;52.136;5.420;2023-12-22T11:00:05;100366.47;;;8.12;100.00
72061;BME280;59925;52.136;5.420;2023-12-22T11:02:34;100366.72;;;8.16;100.00
72061;BME280;59925;52.136;5.420;2023-12-22T11:05:05;100356.06;;;8.16;100.00
72061;BME280;59925;52.136;5.420;2023-12-22T11:07:34;100362.22;;;8.17;100.00
72061;BME280;59925;52.136;5.420;2023-12-22T11:10:04;100349.91;;;8.21;100.00
72061;BME280;59925;52.136;5.420;2023-12-22T11:12:36;100353.94;;;8.23;100.00
72061;BME280;59925;52.136;5.420;2023-12-22T11:15:04;100354.22;;;8.27;100.00
72061;BME280;59925;52.136;5.420;2023-12-22T11:17:35;100344.84;;;8.29;100.00
72061;BME280;59925;52.136;5.420;2023-12-22T11:20:03;100356.91;;;8.32;100.00
72061;BME280;59925;52.136;5.420;2023-12-22T11:22:31;100362.50;;;8.36;100.00
72061;BME280;59925;52.136;5.420;2023-12-22T11:25:00;100347.81;;;8.38;100.00
72061;BME280;59925;52.136;5.420;2023-12-22T11:27:27;100351.28;;;8.39;100.00
72061;BME280;59925;52.136;5.420;2023-12-22T11:29:55;100349.41;;;8.34;100.00
72061;BME280;59925;52.136;5.420;2023-12-22T11:32:21;100351.28;;;8.34;100.00
72061;BME280;59925;52.136;5.420;2023-12-22T11:34:49;100351.00;;;8.35;100.00
72061;BME280;59925;52.136;5.420;2023-12-22T11:37:16;100340.06;;;8.37;100.00
72061;BME280;59925;52.136;5.420;2023-12-22T11:39:43;100338.44;;;8.41;100.00
72061;BME280;59925;52.136;5.420;2023-12-22T11:42:18;100355.00;;;8.43;100.00
72061;BME280;59925;52.136;5.420;2023-12-22T11:44:46;100340.34;;;8.46;100.00
72061;BME280;59925;52.136;5.420;2023-12-22T11:47:13;100338.22;;;8.48;100.00
72061;BME280;59925;52.136;5.420;2023-12-22T11:49:41;100325.94;;;8.52;100.00
72061;BME280;59925;52.136;5.420;2023-12-22T11:52:17;100322.72;;;8.55;100.00
72061;BME280;59925;52.136;5.420;2023-12-22T11:59:55;100324.59;;;8.65;100.00
72061;BME280;59925;52.136;5.420;2023-12-22T12:02:22;100324.59;;;8.65;100.00
72061;BME280;59925;52.136;5.420;2023-12-22T12:04:50;100306.41;;;8.67;100.00
72061;BME280;59925;52.136;5.420;2023-12-22T12:07:39;100307.22;;;8.67;100.00
72061;BME280;59925;52.136;5.420;2023-12-22T12:10:09;100299.75;;;8.69;100.00
72061;BME280;59925;52.136;5.420;2023-12-22T12:12:36;100292.25;;;8.71;100.00
72061;BME280;59925;52.136;5.420;2023-12-22T12:15:08;100294.13;;;8.76;100.00
72061;BME280;59925;52.136;5.420;2023-12-22T12:17:40;100293.84;;;8.78;100.00
72061;BME280;59925;52.136;5.420;2023-12-22T12:20:07;100291.97;;;8.78;100.00
72061;BME280;59925;52.136;5.420;2023-12-22T12:22:36;100286.63;;;8.78;100.00
72061;BME280;59925;52.136;5.420;2023-12-22T12:25:08;100295.44;;;8.84;100.00
72061;BME280;59925;52.136;5.420;2023-12-22T12:28:00;100286.34;;;8.85;100.00
72061;BME280;59925;52.136;5.420;2023-12-22T12:30:27;100287.66;;;8.87;100.00
72061;BME280;59925;52.136;5.420;2023-12-22T12:32:54;100299.69;;;8.90;100.00
72061;BME280;59925;52.136;5.420;2023-12-22T12:35:21;100287.66;;;8.93;100.00
72061;BME280;59925;52.136;5.420;2023-12-22T12:37:52;100296.47;;;8.93;100.00
72061;BME280;59925;52.136;5.420;2023-12-22T12:40:20;100278.84;;;8.87;100.00
72061;BME280;59925;52.136;5.420;2023-12-22T12:42:50;100277.50;;;8.84;100.00
72061;BME280;59925;52.136;5.420;2023-12-22T12:45:22;100284.19;;;8.87;100.00
72061;BME280;59925;52.136;5.420;2023-12-22T12:47:59;100291.66;;;8.95;100.00
72061;BME280;59925;52.136;5.420;2023-12-22T12:50:28;100280.16;;;9.00;100.00
72061;BME280;59925;52.136;5.420;2023-12-22T12:52:57;100285.22;;;9.01;100.00
72061;BME280;59925;52.136;5.420;2023-12-22T12:55:25;100272.91;;;9.00;100.00
72061;BME280;59925;52.136;5.420;2023-12-22T12:57:52;100306.88;;;9.05;100.00
72061;BME280;59925;52.136;5.420;2023-12-22T13:00:30;100299.66;;;9.05;100.00
72061;BME280;59925;52.136;5.420;2023-12-22T13:03:00;100303.38;;;9.04;100.00
72061;BME280;59925;52.136;5.420;2023-12-22T13:05:30;100303.38;;;9.04;100.00